createdAt,value
2023-03-18T00:00:40.616Z,39.40
2023-03-18T00:03:08.828Z,39.90
2023-03-18T00:05:37.095Z,40.10
2023-03-18T00:08:07.109Z,39.80
2023-03-18T00:10:35.396Z,39.50
2023-03-18T00:13:04.590Z,39.00
2023-03-18T00:15:32.834Z,38.90
2023-03-18T00:18:01.219Z,38.70
2023-03-18T00:20:39.394Z,38.50
2023-03-18T00:23:09.501Z,38.40
2023-03-18T00:25:37.967Z,38.30
2023-03-18T00:28:06.535Z,38.60
2023-03-18T00:30:34.758Z,39.30
2023-03-18T00:33:02.908Z,38.90
2023-03-18T00:35:31.496Z,39.60
2023-03-18T00:38:00.519Z,38.70
2023-03-18T00:40:43.076Z,38.50
2023-03-18T00:43:12.848Z,38.30
2023-03-18T00:45:42.759Z,38.00
2023-03-18T00:48:11.188Z,37.80
2023-03-18T00:50:39.271Z,37.70
2023-03-18T00:53:07.363Z,37.50
2023-03-18T00:55:36.882Z,37.70
2023-03-18T00:58:04.990Z,38.00
2023-03-18T01:00:33.519Z,38.40
2023-03-18T01:03:01.712Z,38.50
2023-03-18T01:05:30.452Z,38.10
2023-03-18T01:07:58.921Z,38.00
2023-03-18T01:10:27.303Z,37.70
2023-03-18T01:12:56.745Z,37.60
2023-03-18T01:15:25.154Z,37.50
2023-03-18T01:17:56.862Z,37.30
2023-03-18T01:20:25.551Z,37.10
2023-03-18T01:22:53.631Z,37.30
2023-03-18T01:25:22.089Z,37.60
2023-03-18T01:27:50.137Z,37.90
2023-03-18T01:30:19.841Z,38.20
2023-03-18T01:32:48.869Z,38.50
2023-03-18T01:35:18.016Z,38.60
2023-03-18T01:37:46.857Z,38.90
2023-03-18T01:40:16.131Z,40.90
2023-03-18T01:42:45.485Z,41.00
2023-03-18T01:45:22.006Z,38.20
2023-03-18T01:47:50.687Z,37.10
2023-03-18T01:50:21.937Z,38.10
2023-03-18T01:52:50.711Z,37.70
2023-03-18T01:55:20.190Z,38.10
2023-03-18T01:57:48.487Z,38.20
2023-03-18T02:00:17.525Z,38.90
2023-03-18T02:02:48.029Z,39.70
2023-03-18T02:05:17.613Z,40.40
2023-03-18T02:07:46.465Z,40.80
2023-03-18T02:10:15.953Z,41.10
2023-03-18T02:12:45.598Z,41.30
2023-03-18T02:15:16.542Z,41.40
2023-03-18T02:17:48.764Z,41.80
2023-03-18T02:20:22.364Z,42.20
2023-03-18T02:22:53.527Z,42.30
2023-03-18T02:25:28.856Z,42.50
2023-03-18T02:28:00.328Z,43.20
2023-03-18T02:30:29.675Z,43.70
2023-03-18T02:32:58.443Z,44.30
2023-03-18T02:35:26.673Z,44.80
2023-03-18T02:37:54.767Z,44.90
2023-03-18T02:40:27.396Z,45.20
2023-03-18T02:42:55.461Z,45.40
2023-03-18T02:45:31.885Z,45.70
2023-03-18T02:47:59.916Z,46.60
2023-03-18T02:50:28.113Z,46.60
2023-03-18T02:52:56.294Z,46.40
2023-03-18T02:55:24.303Z,47.30
2023-03-18T02:57:52.389Z,47.40
2023-03-18T03:00:20.748Z,48.20
2023-03-18T03:02:50.215Z,51.00
2023-03-18T03:05:18.542Z,50.40
2023-03-18T03:07:46.743Z,51.40
2023-03-18T03:10:14.760Z,50.80
2023-03-18T03:12:42.776Z,51.00
2023-03-18T03:15:11.557Z,49.60
2023-03-18T03:17:39.623Z,50.20
2023-03-18T03:20:10.727Z,50.40
2023-03-18T03:22:38.794Z,50.60
2023-03-18T03:25:07.958Z,51.80
2023-03-18T03:27:36.728Z,52.20
2023-03-18T03:30:05.501Z,52.80
2023-03-18T03:32:33.600Z,53.00
2023-03-18T03:35:01.812Z,53.40
2023-03-18T03:37:31.388Z,53.20
2023-03-18T03:40:00.059Z,44.00
2023-03-18T03:42:28.092Z,56.30
2023-03-18T03:44:56.124Z,58.50
2023-03-18T03:47:24.303Z,59.30
2023-03-18T03:49:52.557Z,35.20
2023-03-18T03:52:20.937Z,35.00
2023-03-18T03:54:50.434Z,34.80
2023-03-18T03:57:18.517Z,34.80
2023-03-18T03:59:46.630Z,34.90
2023-03-18T04:02:14.929Z,35.20
2023-03-18T04:04:43.369Z,35.60
2023-03-18T04:07:11.913Z,35.70
2023-03-18T04:09:41.189Z,35.40
2023-03-18T04:12:12.053Z,35.20
2023-03-18T04:14:40.129Z,35.00
2023-03-18T04:17:08.149Z,35.00
2023-03-18T04:19:36.181Z,34.80
2023-03-18T04:22:04.198Z,34.70
2023-03-18T04:24:32.512Z,34.50
2023-03-18T04:27:00.535Z,34.50
2023-03-18T04:29:30.007Z,35.00
2023-03-18T04:31:59.101Z,35.30
2023-03-18T04:34:27.479Z,35.60
2023-03-18T04:36:56.338Z,35.30
2023-03-18T04:39:24.375Z,35.10
2023-03-18T04:41:52.365Z,35.00
2023-03-18T04:44:21.060Z,34.90
2023-03-18T04:46:50.571Z,34.70
2023-03-18T04:49:19.784Z,34.60
2023-03-18T04:51:47.909Z,34.50
2023-03-18T04:54:15.980Z,34.40
2023-03-18T04:56:44.753Z,34.70
2023-03-18T04:59:12.843Z,35.00
2023-03-18T05:01:40.959Z,35.40
2023-03-18T05:04:10.485Z,35.30
2023-03-18T05:06:38.749Z,35.10
2023-03-18T05:09:06.871Z,34.90
2023-03-18T05:11:35.056Z,34.80
2023-03-18T05:14:03.101Z,34.60
2023-03-18T05:16:31.200Z,34.50
2023-03-18T05:18:59.232Z,34.40
2023-03-18T05:21:30.473Z,34.40
2023-03-18T05:23:58.622Z,34.40
2023-03-18T05:26:26.682Z,34.80
2023-03-18T05:28:54.801Z,35.30
2023-03-18T05:31:23.014Z,35.40
2023-03-18T05:33:51.243Z,35.70
2023-03-18T05:36:19.352Z,36.10
2023-03-18T05:38:48.785Z,36.10
2023-03-18T05:41:16.810Z,35.90
2023-03-18T05:43:44.846Z,35.80
2023-03-18T05:46:12.974Z,35.70
2023-03-18T05:48:41.653Z,35.60
2023-03-18T05:51:10.067Z,35.50
2023-03-18T05:53:38.655Z,35.30
2023-03-18T05:56:08.469Z,35.20
2023-03-18T05:58:36.507Z,35.10
2023-03-18T06:01:04.659Z,35.50
2023-03-18T06:03:32.865Z,35.80
2023-03-18T06:06:00.906Z,36.10
2023-03-18T06:08:28.957Z,36.40
2023-03-18T06:10:57.053Z,36.90
2023-03-18T06:13:26.477Z,36.00
2023-03-18T06:15:57.979Z,35.70
2023-03-18T06:18:26.464Z,35.60
2023-03-18T06:20:54.604Z,35.40
2023-03-18T06:23:22.702Z,35.30
2023-03-18T06:25:51.073Z,35.20
2023-03-18T06:28:19.147Z,35.00
2023-03-18T06:30:48.579Z,35.20
2023-03-18T06:33:16.695Z,35.60
2023-03-18T06:35:44.831Z,35.90
2023-03-18T06:38:14.560Z,36.10
2023-03-18T06:40:42.680Z,36.40
2023-03-18T06:43:11.013Z,35.90
2023-03-18T06:45:39.165Z,35.70
2023-03-18T06:48:09.629Z,35.60
2023-03-18T06:50:39.638Z,35.40
2023-03-18T06:53:07.828Z,35.20
2023-03-18T06:55:36.038Z,35.10
2023-03-18T06:58:05.544Z,35.10
2023-03-18T07:00:34.049Z,34.90
2023-03-18T07:03:02.497Z,35.30
2023-03-18T07:05:33.103Z,35.60
2023-03-18T07:08:01.639Z,36.10
2023-03-18T07:10:30.850Z,35.60
2023-03-18T07:12:59.904Z,35.50
2023-03-18T07:15:28.769Z,35.30
2023-03-18T07:17:56.839Z,35.10
2023-03-18T07:20:24.950Z,35.00
2023-03-18T07:22:54.686Z,34.90
2023-03-18T07:25:29.321Z,34.70
2023-03-18T07:28:01.327Z,34.60
2023-03-18T07:30:30.493Z,35.00
2023-03-18T07:32:58.780Z,35.50
2023-03-18T07:35:27.610Z,36.10
2023-03-18T07:37:57.110Z,36.20
2023-03-18T07:40:25.422Z,36.40
2023-03-18T07:42:53.644Z,36.50
2023-03-18T07:45:21.749Z,35.90
2023-03-18T07:47:49.873Z,35.60
2023-03-18T07:50:18.464Z,35.20
2023-03-18T07:52:46.552Z,35.00
2023-03-18T07:55:16.092Z,34.70
2023-03-18T07:57:44.133Z,34.60
2023-03-18T08:00:14.256Z,34.40
2023-03-18T08:02:42.541Z,34.20
2023-03-18T08:05:11.418Z,34.50
2023-03-18T08:07:39.492Z,35.10
2023-03-18T08:10:09.349Z,35.50
2023-03-18T08:12:52.062Z,35.70
2023-03-18T08:15:22.010Z,37.30
2023-03-18T08:17:50.142Z,38.90
2023-03-18T08:20:18.472Z,41.40
2023-03-18T08:22:46.882Z,36.70
2023-03-18T08:25:15.362Z,40.50
2023-03-18T08:27:44.822Z,42.30
2023-03-18T08:30:14.081Z,44.80
2023-03-18T08:32:42.234Z,34.10
2023-03-18T08:35:11.227Z,40.70
2023-03-18T08:37:39.303Z,35.10
2023-03-18T08:40:09.935Z,34.70
2023-03-18T08:42:38.012Z,34.40
2023-03-18T08:45:08.829Z,34.20
2023-03-18T08:47:36.965Z,34.10
2023-03-18T08:50:05.903Z,33.90
2023-03-18T08:52:33.920Z,33.80
2023-03-18T08:55:02.350Z,33.70
2023-03-18T08:57:30.413Z,33.70
2023-03-18T08:59:58.817Z,33.60
2023-03-18T09:02:28.679Z,34.70
2023-03-18T09:04:56.708Z,34.80
2023-03-18T09:07:24.776Z,34.60
2023-03-18T09:09:54.150Z,34.20
2023-03-18T09:12:22.662Z,34.10
2023-03-18T09:14:50.719Z,34.00
2023-03-18T09:17:18.841Z,34.00
2023-03-18T09:19:48.544Z,33.80
2023-03-18T09:22:16.702Z,33.80
2023-03-18T09:24:44.755Z,33.70
2023-03-18T09:27:13.054Z,33.60
2023-03-18T09:29:41.707Z,34.10
2023-03-18T09:32:09.877Z,34.80
2023-03-18T09:34:41.125Z,35.00
2023-03-18T09:37:11.042Z,35.20
2023-03-18T09:39:39.093Z,35.30
2023-03-18T09:42:17.550Z,36.00
2023-03-18T09:44:45.591Z,34.80
2023-03-18T09:47:24.807Z,34.60
2023-03-18T09:50:00.275Z,34.60
2023-03-18T09:52:30.601Z,34.40
2023-03-18T09:54:59.831Z,34.20
2023-03-18T09:57:28.982Z,34.20
2023-03-18T10:00:00.427Z,34.10
2023-03-18T10:02:32.761Z,34.00
2023-03-18T10:05:01.932Z,34.40
2023-03-18T10:07:34.357Z,35.20
2023-03-18T10:10:04.345Z,35.90
2023-03-18T10:12:33.764Z,34.80
2023-03-18T10:15:06.767Z,34.60
2023-03-18T10:17:37.355Z,34.50
2023-03-18T10:20:16.803Z,34.40
2023-03-18T10:22:54.336Z,34.20
2023-03-18T10:25:27.187Z,34.10
2023-03-18T10:28:02.047Z,34.20
2023-03-18T10:30:39.158Z,33.90
2023-03-18T10:33:10.659Z,34.20
2023-03-18T10:35:39.890Z,34.90
2023-03-18T10:38:16.070Z,35.20
2023-03-18T10:40:44.159Z,34.80
2023-03-18T10:43:15.089Z,34.60
2023-03-18T10:45:43.293Z,34.40
2023-03-18T10:48:16.057Z,34.30
2023-03-18T10:50:45.109Z,34.20
2023-03-18T10:53:17.907Z,34.10
2023-03-18T10:55:51.551Z,34.20
2023-03-18T10:58:20.087Z,34.00
2023-03-18T11:00:48.249Z,34.20
2023-03-18T11:03:21.984Z,34.40
2023-03-18T11:05:50.583Z,34.70
2023-03-18T11:08:36.944Z,35.00
2023-03-18T11:11:22.654Z,34.60
2023-03-18T11:13:52.960Z,34.50
2023-03-18T11:16:29.724Z,34.40
2023-03-18T11:18:58.173Z,34.30
2023-03-18T11:21:26.431Z,34.20
2023-03-18T11:24:08.615Z,34.10
2023-03-18T11:26:47.800Z,34.00
2023-03-18T11:29:18.630Z,34.20
2023-03-18T11:31:51.928Z,34.40
2023-03-18T11:34:20.246Z,34.60
2023-03-18T11:36:55.541Z,35.00
2023-03-18T11:39:27.007Z,35.30
2023-03-18T11:41:55.113Z,35.60
2023-03-18T11:44:29.668Z,35.30
2023-03-18T11:47:02.962Z,35.00
2023-03-18T11:49:31.488Z,34.80
2023-03-18T11:52:06.639Z,34.80
2023-03-18T11:54:55.604Z,34.60
2023-03-18T11:57:24.668Z,34.50
2023-03-18T12:00:05.794Z,34.40
2023-03-18T12:02:56.340Z,34.30
2023-03-18T12:05:41.926Z,34.50
2023-03-18T12:08:14.884Z,34.70
2023-03-18T12:10:48.428Z,35.00
2023-03-18T12:13:32.634Z,34.80
2023-03-18T12:16:05.181Z,34.70
2023-03-18T12:18:43.893Z,34.60
2023-03-18T12:21:22.633Z,34.50
2023-03-18T12:23:58.234Z,34.40
2023-03-18T12:26:29.633Z,34.20
2023-03-18T12:29:37.139Z,34.20
2023-03-18T12:32:16.352Z,34.20
2023-03-18T12:35:02.618Z,34.30
2023-03-18T12:37:35.659Z,34.40
2023-03-18T12:40:12.659Z,35.00
2023-03-18T12:42:56.307Z,34.60
2023-03-18T12:45:25.520Z,34.50
2023-03-18T12:47:56.240Z,34.40
2023-03-18T12:50:25.570Z,34.30
2023-03-18T12:52:55.109Z,34.20
2023-03-18T12:55:24.560Z,34.10
2023-03-18T12:57:54.627Z,34.10
2023-03-18T13:00:25.639Z,34.20
2023-03-18T13:02:59.212Z,34.40
2023-03-18T13:05:32.197Z,34.70
2023-03-18T13:08:15.506Z,34.80
2023-03-18T13:10:43.606Z,34.60
2023-03-18T13:13:13.141Z,34.40
2023-03-18T13:15:42.727Z,34.30
2023-03-18T13:18:15.349Z,34.20
2023-03-18T13:20:43.372Z,34.20
2023-03-18T13:23:17.384Z,34.10
2023-03-18T13:25:51.191Z,34.00
2023-03-18T13:28:42.632Z,34.10
2023-03-18T13:31:12.077Z,34.30
2023-03-18T13:33:53.209Z,34.50
2023-03-18T13:36:50.836Z,34.90
2023-03-18T13:39:24.075Z,35.00
2023-03-18T13:42:04.907Z,35.50
2023-03-18T13:44:39.549Z,35.50
2023-03-18T13:47:09.097Z,35.00
2023-03-18T13:49:39.235Z,34.90
2023-03-18T13:52:24.035Z,34.60
2023-03-18T13:54:52.646Z,34.50
2023-03-18T13:57:33.962Z,34.40
2023-03-18T14:00:25.418Z,34.30
2023-03-18T14:03:06.121Z,34.10
2023-03-18T14:05:36.068Z,34.50
2023-03-18T14:08:23.419Z,34.70
2023-03-18T14:10:51.526Z,34.90
2023-03-18T14:13:27.530Z,34.90
2023-03-18T14:15:58.557Z,34.70
2023-03-18T14:18:28.109Z,34.60
2023-03-18T14:21:04.619Z,34.50
2023-03-18T14:23:40.973Z,34.30
2023-03-18T14:26:19.214Z,34.20
2023-03-18T14:28:48.916Z,34.20
2023-03-18T14:31:26.636Z,34.10
2023-03-18T14:34:25.390Z,34.30
2023-03-18T14:37:25.430Z,34.70
2023-03-18T14:39:55.023Z,35.00
2023-03-18T14:42:38.185Z,34.70
2023-03-18T14:45:07.781Z,34.60
2023-03-18T14:47:44.611Z,34.50
2023-03-18T14:50:23.289Z,34.40
2023-03-18T14:52:55.725Z,34.20
2023-03-18T14:55:25.715Z,34.20
2023-03-18T14:57:53.829Z,34.00
2023-03-18T15:00:24.206Z,34.20
2023-03-18T15:03:00.684Z,34.60
2023-03-18T15:05:32.820Z,34.80
2023-03-18T15:08:00.966Z,35.00
2023-03-18T15:10:30.632Z,34.70
2023-03-18T15:13:00.222Z,34.60
2023-03-18T15:15:28.251Z,34.40
2023-03-18T15:17:57.792Z,34.30
2023-03-18T15:20:25.883Z,34.20
2023-03-18T15:22:54.319Z,34.10
2023-03-18T15:25:22.543Z,34.10
2023-03-18T15:27:50.765Z,34.20
2023-03-18T15:30:26.567Z,34.30
2023-03-18T15:33:04.647Z,34.70
2023-03-18T15:35:33.070Z,34.90
2023-03-18T15:38:12.897Z,35.30
2023-03-18T15:40:48.174Z,35.70
2023-03-18T15:43:19.464Z,36.00
2023-03-18T15:45:48.460Z,35.40
2023-03-18T15:48:23.925Z,35.20
2023-03-18T15:50:56.244Z,35.00
2023-03-18T15:53:25.509Z,34.90
2023-03-18T15:55:55.414Z,34.70
2023-03-18T15:58:26.363Z,34.60
2023-03-18T16:00:55.122Z,34.50
2023-03-18T16:03:27.648Z,34.40
2023-03-18T16:05:55.888Z,34.70
2023-03-18T16:08:24.082Z,34.90
2023-03-18T16:10:53.936Z,35.30
2023-03-18T16:13:24.425Z,35.10
2023-03-18T16:15:53.241Z,35.00
2023-03-18T16:18:21.368Z,34.80
2023-03-18T16:20:51.185Z,34.60
2023-03-18T16:23:19.303Z,34.60
2023-03-18T16:25:48.439Z,34.50
2023-03-18T16:28:19.224Z,34.40
2023-03-18T16:30:47.611Z,34.20
2023-03-18T16:33:17.001Z,34.60
2023-03-18T16:35:45.756Z,34.60
2023-03-18T16:38:16.478Z,35.00
2023-03-18T16:40:44.627Z,35.20
2023-03-18T16:43:17.155Z,35.00
2023-03-18T16:45:45.222Z,34.80
2023-03-18T16:48:14.729Z,34.70
2023-03-18T16:50:42.825Z,34.60
2023-03-18T16:53:17.613Z,34.50
2023-03-18T16:55:46.818Z,34.40
2023-03-18T16:58:17.799Z,34.30
2023-03-18T17:00:48.311Z,34.50
2023-03-18T17:03:18.232Z,34.70
2023-03-18T17:05:47.338Z,35.00
2023-03-18T17:08:17.019Z,35.40
2023-03-18T17:10:45.390Z,35.00
2023-03-18T17:13:19.609Z,34.80
2023-03-18T17:15:47.610Z,34.70
2023-03-18T17:18:16.531Z,34.60
2023-03-18T17:20:45.043Z,34.50
2023-03-18T17:23:19.572Z,34.40
2023-03-18T17:25:52.227Z,34.30
2023-03-18T17:28:25.008Z,34.30
2023-03-18T17:30:53.223Z,34.60
2023-03-18T17:33:24.347Z,34.90
2023-03-18T17:35:52.744Z,35.10
2023-03-18T17:38:22.359Z,35.50
2023-03-18T17:40:50.542Z,36.00
2023-03-18T17:43:20.781Z,36.20
2023-03-18T17:45:48.864Z,35.80
2023-03-18T17:48:20.039Z,35.60
2023-03-18T17:50:48.612Z,35.40
2023-03-18T17:53:26.842Z,35.10
2023-03-18T17:55:55.066Z,35.00
2023-03-18T17:58:24.678Z,34.90
2023-03-18T18:00:54.011Z,34.70
2023-03-18T18:03:24.391Z,34.80
2023-03-18T18:05:53.976Z,34.90
2023-03-18T18:08:24.454Z,35.10
2023-03-18T18:10:52.938Z,35.50
2023-03-18T18:13:22.283Z,35.60
2023-03-18T18:15:50.907Z,35.30
2023-03-18T18:18:24.636Z,35.10
2023-03-18T18:20:54.812Z,35.00
2023-03-18T18:23:26.244Z,34.80
2023-03-18T18:25:54.360Z,34.70
2023-03-18T18:28:23.202Z,34.60
2023-03-18T18:30:51.480Z,34.50
2023-03-18T18:33:19.571Z,34.80
2023-03-18T18:35:47.921Z,35.10
2023-03-18T18:38:15.986Z,35.10
2023-03-18T18:40:46.460Z,35.50
2023-03-18T18:43:14.537Z,35.20
2023-03-18T18:45:42.973Z,35.00
2023-03-18T18:48:14.015Z,35.00
2023-03-18T18:50:42.513Z,34.80
2023-03-18T18:53:18.673Z,34.80
2023-03-18T18:55:49.225Z,34.60
2023-03-18T18:58:18.760Z,34.50
2023-03-18T19:00:48.588Z,34.60
2023-03-18T19:03:18.029Z,34.80
2023-03-18T19:05:46.230Z,35.00
2023-03-18T19:08:32.287Z,35.50
2023-03-18T19:11:02.500Z,35.20
2023-03-18T19:13:31.381Z,35.00
2023-03-18T19:16:00.855Z,34.90
2023-03-18T19:18:32.994Z,34.80
2023-03-18T19:21:01.496Z,34.60
2023-03-18T19:23:30.872Z,34.50
2023-03-18T19:25:59.650Z,34.40
2023-03-18T19:28:47.725Z,34.40
2023-03-18T19:31:20.289Z,34.80
2023-03-18T19:33:50.695Z,35.00
2023-03-18T19:36:23.883Z,35.50
2023-03-18T19:38:52.058Z,35.80
2023-03-18T19:41:21.626Z,36.00
2023-03-18T19:43:51.423Z,36.30
2023-03-18T19:46:23.766Z,35.90
2023-03-18T19:48:52.483Z,35.70
2023-03-18T19:51:23.000Z,35.40
2023-03-18T19:53:51.314Z,35.30
2023-03-18T19:56:26.406Z,35.20
2023-03-18T19:58:57.652Z,35.00
2023-03-18T20:01:29.162Z,35.40
2023-03-18T20:03:58.723Z,34.70
2023-03-18T20:06:27.098Z,35.10
2023-03-18T20:08:55.891Z,35.40
2023-03-18T20:11:25.013Z,35.70
2023-03-18T20:13:53.163Z,35.60
2023-03-18T20:16:22.834Z,35.30
2023-03-18T20:18:51.656Z,35.20
2023-03-18T20:21:22.701Z,35.00
2023-03-18T20:23:50.878Z,35.00
2023-03-18T20:26:18.983Z,34.90
2023-03-18T20:28:47.099Z,34.70
2023-03-18T20:31:15.497Z,34.60
2023-03-18T20:33:44.934Z,34.90
2023-03-18T20:36:15.522Z,35.00
2023-03-18T20:38:43.709Z,35.50
2023-03-18T20:41:12.799Z,35.60
2023-03-18T20:43:40.928Z,35.30
2023-03-18T20:46:10.197Z,35.10
2023-03-18T20:48:38.737Z,35.00
2023-03-18T20:51:11.615Z,34.80
2023-03-18T20:53:39.819Z,34.70
2023-03-18T20:56:08.751Z,34.60
2023-03-18T20:58:37.215Z,34.60
2023-03-18T21:01:05.700Z,34.60
2023-03-18T21:03:34.773Z,35.00
2023-03-18T21:06:03.627Z,35.30
2023-03-18T21:08:33.311Z,35.60
2023-03-18T21:11:02.316Z,35.20
2023-03-18T21:13:32.127Z,35.20
2023-03-18T21:16:00.751Z,35.00
2023-03-18T21:18:29.043Z,34.80
2023-03-18T21:20:57.761Z,34.70
2023-03-18T21:23:27.062Z,34.60
2023-03-18T21:25:57.010Z,34.50
2023-03-18T21:28:25.998Z,34.30
2023-03-18T21:30:57.862Z,34.70
2023-03-18T21:33:27.439Z,35.00
2023-03-18T21:35:57.061Z,35.50
2023-03-18T21:38:25.678Z,35.70
2023-03-18T21:40:54.030Z,35.90
2023-03-18T21:43:28.344Z,36.20
2023-03-18T21:45:56.667Z,36.00
2023-03-18T21:48:24.733Z,35.70
2023-03-18T21:50:54.131Z,35.60
2023-03-18T21:53:22.986Z,35.30
2023-03-18T21:55:51.581Z,35.20
2023-03-18T21:58:20.441Z,35.10
2023-03-18T22:00:50.672Z,34.90
2023-03-18T22:03:19.472Z,34.80
2023-03-18T22:05:48.800Z,35.00
2023-03-18T22:08:17.335Z,35.30
2023-03-18T22:10:45.622Z,35.60
2023-03-18T22:13:24.461Z,35.70
2023-03-18T22:15:53.982Z,35.40
2023-03-18T22:18:22.168Z,35.30
2023-03-18T22:20:51.427Z,35.00
2023-03-18T22:23:20.494Z,35.00
2023-03-18T22:25:49.756Z,34.80
2023-03-18T22:28:18.264Z,34.60
2023-03-18T22:30:47.257Z,34.60
2023-03-18T22:33:21.136Z,34.60
2023-03-18T22:35:49.466Z,35.00
2023-03-18T22:38:18.104Z,35.40
2023-03-18T22:40:46.814Z,35.70
2023-03-18T22:43:21.183Z,35.30
2023-03-18T22:45:49.397Z,35.10
2023-03-18T22:48:19.397Z,35.00
2023-03-18T22:50:47.590Z,34.80
2023-03-18T22:53:19.275Z,34.80
2023-03-18T22:55:47.366Z,34.60
2023-03-18T22:58:19.192Z,34.50
2023-03-18T23:00:47.287Z,34.40
2023-03-18T23:03:17.581Z,34.80
2023-03-18T23:05:47.282Z,35.10
2023-03-18T23:08:15.393Z,35.50
2023-03-18T23:10:43.811Z,35.20
2023-03-18T23:13:16.393Z,35.10
2023-03-18T23:15:44.499Z,34.90
2023-03-18T23:18:13.885Z,34.90
2023-03-18T23:20:42.115Z,34.70
2023-03-18T23:23:11.766Z,34.60
2023-03-18T23:25:40.007Z,34.50
2023-03-18T23:28:08.285Z,34.40
2023-03-18T23:30:36.600Z,34.60
2023-03-18T23:33:04.841Z,34.90
2023-03-18T23:35:33.708Z,35.40
2023-03-18T23:38:02.685Z,35.50
2023-03-18T23:40:32.190Z,35.80
2023-03-18T23:43:00.371Z,36.00
2023-03-18T23:45:28.790Z,36.20
2023-03-18T23:47:56.941Z,35.70
2023-03-18T23:50:25.154Z,35.50
2023-03-18T23:52:53.175Z,35.40
2023-03-18T23:55:33.958Z,35.20
2023-03-18T23:58:04.645Z,35.10
